Time;durP1;ratioP1;P1;durP2;ratioP2;P2;SDS_P1;SDS_P2;PMS_P1;PMS_P2;Temp;Humidity;BMP_temperature;BMP_pressure;BME280_temperature;BME280_humidity;BME280_pressure;Samples;Min_cycle;Max_cycle;Signal;HPM_P1;HPM_P2
2022/07/14 00:01:01;;;;;;;1.70;1.60;;;23.30;49.20;;;;;;4880449;29;20267;-60
2022/07/14 00:03:27;;;;;;;1.60;1.50;;;23.30;49.20;;;;;;4870411;29;20442;-58
2022/07/14 00:05:53;;;;;;;1.90;1.80;;;23.30;49.20;;;;;;4872949;29;20200;-60
2022/07/14 00:08:18;;;;;;;1.97;1.87;;;23.30;49.20;;;;;;4873162;29;20204;-62
2022/07/14 00:10:44;;;;;;;1.80;1.70;;;23.30;49.20;;;;;;4872690;29;20593;-61
2022/07/14 00:13:10;;;;;;;1.77;1.67;;;23.30;50.00;;;;;;4872635;29;20180;-67
2022/07/14 00:15:36;;;;;;;1.63;1.53;;;23.30;49.20;;;;;;4875998;29;20462;-58
2022/07/14 00:18:02;;;;;;;2.17;2.03;;;23.30;49.20;;;;;;4877884;29;20287;-57
2022/07/14 00:20:28;;;;;;;1.83;1.73;;;23.30;49.20;;;;;;4868047;29;20204;-69
2022/07/14 00:22:58;;;;;;;1.73;1.63;;;23.30;49.20;;;;;;4870286;29;21047;-63
2022/07/14 00:25:26;;;;;;;2.07;1.97;;;23.30;49.20;;;;;;4869862;29;20185;-60
2022/07/14 00:27:53;;;;;;;1.73;1.63;;;23.30;49.20;;;;;;4871456;29;20499;-68
2022/07/14 00:30:19;;;;;;;1.83;1.73;;;23.30;49.10;;;;;;4869434;29;20473;-59
2022/07/14 00:32:45;;;;;;;1.83;1.73;;;23.30;49.20;;;;;;4876704;29;20435;-60
2022/07/14 00:35:11;;;;;;;1.80;1.70;;;23.30;49.10;;;;;;4871952;29;20516;-61
2022/07/14 00:37:37;;;;;;;1.60;1.50;;;23.30;49.20;;;;;;4871424;29;20185;-57
2022/07/14 00:40:05;;;;;;;1.90;1.80;;;23.30;49.20;;;;;;4872971;29;21438;-60
2022/07/14 00:42:33;;;;;;;4.27;1.90;;;23.30;49.20;;;;;;4868928;29;20193;-66
2022/07/14 00:45:01;;;;;;;1.90;1.80;;;23.30;49.20;;;;;;4870576;29;20439;-59
2022/07/14 00:47:27;;;;;;;2.00;1.80;;;23.30;49.10;;;;;;4877431;29;20443;-58
2022/07/14 00:49:54;;;;;;;1.80;1.70;;;23.40;49.20;;;;;;4868835;29;20439;-63
2022/07/14 00:52:20;;;;;;;1.80;1.70;;;23.30;49.10;;;;;;4868651;29;20435;-68
2022/07/14 00:54:47;;;;;;;1.73;1.63;;;23.30;49.20;;;;;;4869950;29;20439;-58
2022/07/14 00:57:12;;;;;;;1.83;1.70;;;23.30;49.20;;;;;;4872255;29;20428;-57
2022/07/14 00:59:38;;;;;;;2.07;1.97;;;23.30;49.10;;;;;;4867058;29;20875;-61
2022/07/14 01:02:03;;;;;;;2.00;1.90;;;23.30;49.20;;;;;;4872091;29;20201;-58
2022/07/14 01:04:29;;;;;;;1.77;1.60;;;23.40;49.20;;;;;;4874259;29;20556;-61
2022/07/14 01:06:55;;;;;;;1.60;1.50;;;23.40;49.20;;;;;;4872947;29;20184;-58
2022/07/14 01:09:21;;;;;;;1.70;1.60;;;23.30;49.20;;;;;;4870756;29;20199;-68
2022/07/14 01:11:46;;;;;;;1.60;1.50;;;23.30;49.10;;;;;;4871586;29;20180;-60
2022/07/14 01:14:12;;;;;;;1.80;1.70;;;23.30;49.10;;;;;;4871058;29;20443;-58
2022/07/14 01:16:37;;;;;;;1.60;1.50;;;23.30;49.10;;;;;;4872430;29;20204;-62
2022/07/14 01:19:03;;;;;;;1.73;1.63;;;23.30;49.20;;;;;;4878106;29;20572;-70
2022/07/14 01:21:28;;;;;;;1.70;1.60;;;23.30;49.20;;;;;;4867479;29;20327;-69
2022/07/14 01:23:54;;;;;;;1.90;1.80;;;23.40;49.20;;;;;;4868293;29;20192;-67
2022/07/14 01:26:20;;;;;;;1.80;1.70;;;23.30;49.10;;;;;;4870440;29;20410;-57
2022/07/14 01:28:45;;;;;;;1.77;1.67;;;23.30;49.10;;;;;;4867942;29;20924;-63
2022/07/14 01:31:11;;;;;;;1.70;1.60;;;23.30;49.20;;;;;;4870393;29;20209;-70
2022/07/14 01:33:36;;;;;;;1.90;1.80;;;23.40;49.20;;;;;;4875276;29;20593;-57
2022/07/14 01:36:03;;;;;;;1.90;1.80;;;23.30;49.20;;;;;;4871307;29;20723;-60
2022/07/14 01:38:28;;;;;;;1.77;1.67;;;23.30;49.20;;;;;;4873235;29;20342;-58
2022/07/14 01:40:54;;;;;;;1.90;1.80;;;23.30;49.20;;;;;;4871729;29;20494;-59
2022/07/14 01:43:19;;;;;;;1.80;1.70;;;23.30;49.20;;;;;;4871768;29;20188;-69
2022/07/14 01:45:47;;;;;;;1.70;1.60;;;23.30;49.20;;;;;;4867814;29;20218;-66
2022/07/14 01:48:13;;;;;;;1.63;1.53;;;23.40;49.30;;;;;;4868446;29;20704;-58
2022/07/14 01:50:39;;;;;;;1.50;1.40;;;23.30;49.20;;;;;;4876165;29;20446;-67
2022/07/14 01:53:04;;;;;;;1.80;1.70;;;23.30;49.20;;;;;;4868052;29;20443;-62
2022/07/14 01:55:30;;;;;;;1.77;1.67;;;23.30;49.20;;;;;;4867743;29;20634;-60
2022/07/14 01:57:56;;;;;;;1.90;1.80;;;23.40;49.20;;;;;;4867212;29;22441;-58
2022/07/14 02:00:21;;;;;;;1.63;1.50;;;23.40;49.40;;;;;;4866576;29;20243;-68
2022/07/14 02:02:47;;;;;;;1.60;1.50;;;23.40;49.20;;;;;;4867659;29;20189;-68
2022/07/14 02:05:12;;;;;;;1.67;1.57;;;23.30;49.30;;;;;;4875870;29;20767;-60
2022/07/14 02:07:38;;;;;;;1.50;1.40;;;23.30;49.10;;;;;;4869890;29;20802;-59
2022/07/14 02:12:49;;;;;;;1.60;1.50;;;23.30;49.20;;;;;;4869699;29;20198;-57
2022/07/14 02:15:15;;;;;;;1.83;1.73;;;23.30;50.00;;;;;;4866348;29;20439;-67
2022/07/14 02:17:43;;;;;;;1.60;1.50;;;23.40;49.20;;;;;;4865511;29;20236;-67
2022/07/14 02:20:10;;;;;;;1.60;1.50;;;23.30;49.20;;;;;;4877475;29;20208;-57
2022/07/14 02:22:36;;;;;;;1.73;1.63;;;23.30;49.20;;;;;;4867131;29;20442;-64
2022/07/14 02:25:02;;;;;;;1.80;1.70;;;23.30;49.20;;;;;;4865948;29;20935;-68
2022/07/14 02:27:28;;;;;;;1.50;1.40;;;23.40;49.20;;;;;;4866503;29;20185;-66
2022/07/14 02:29:54;;;;;;;2.00;1.90;;;23.30;49.20;;;;;;4866072;29;20439;-70
2022/07/14 02:32:19;;;;;;;1.67;1.57;;;23.40;49.30;;;;;;4869840;29;20280;-66
2022/07/14 02:34:45;;;;;;;1.80;1.70;;;23.40;49.20;;;;;;4867471;29;20628;-62
2022/07/14 02:37:11;;;;;;;1.60;1.50;;;23.30;49.20;;;;;;4877625;29;20207;-57
2022/07/14 02:39:36;;;;;;;1.60;1.50;;;23.30;49.20;;;;;;4873635;29;20685;-62
2022/07/14 02:42:02;;;;;;;1.60;1.50;;;23.30;49.10;;;;;;4872896;29;20204;-65
2022/07/14 02:44:27;;;;;;;1.60;1.50;;;23.40;49.20;;;;;;4867670;29;20193;-69
2022/07/14 02:46:53;;;;;;;1.60;1.50;;;23.30;49.30;;;;;;4866723;29;20192;-70
2022/07/14 02:49:19;;;;;;;1.70;1.60;;;23.40;49.30;;;;;;4866343;29;20200;-68
2022/07/14 02:51:44;;;;;;;1.60;1.50;;;23.40;49.20;;;;;;4877002;29;20615;-59
2022/07/14 02:54:10;;;;;;;1.80;1.70;;;23.30;49.20;;;;;;4866037;29;20207;-67
2022/07/14 02:56:35;;;;;;;1.50;1.40;;;23.40;49.30;;;;;;4865932;29;20722;-62
2022/07/14 02:59:07;;;;;;;1.70;1.60;;;23.40;49.30;;;;;;4866364;29;20258;-67
2022/07/14 03:01:33;;;;;;;2.10;2.00;;;23.40;49.20;;;;;;4872417;29;20192;-60
2022/07/14 03:03:59;;;;;;;1.93;1.83;;;23.40;49.30;;;;;;4868689;29;20943;-59
2022/07/14 03:06:24;;;;;;;1.90;1.80;;;23.30;49.20;;;;;;4875141;29;20320;-65
2022/07/14 03:08:50;;;;;;;1.70;1.60;;;23.40;49.30;;;;;;4874382;29;20527;-57
2022/07/14 03:11:16;;;;;;;1.50;1.40;;;23.40;49.20;;;;;;4871765;29;20274;-63
2022/07/14 03:13:42;;;;;;;1.53;1.43;;;23.40;49.20;;;;;;4870333;29;20187;-69
2022/07/14 03:16:09;;;;;;;1.70;1.60;;;23.40;49.20;;;;;;4870109;29;20787;-70
2022/07/14 03:18:39;;;;;;;1.73;1.63;;;23.30;49.20;;;;;;4869418;29;20490;-61
2022/07/14 03:21:09;;;;;;;2.17;1.93;;;23.30;49.20;;;;;;4874026;29;20443;-59
2022/07/14 03:23:35;;;;;;;1.73;1.63;;;23.30;49.20;;;;;;4882751;29;20972;-62
2022/07/14 03:26:01;;;;;;;1.53;1.43;;;23.40;49.20;;;;;;4871923;29;20439;-64
2022/07/14 03:28:28;;;;;;;1.60;1.50;;;23.40;49.30;;;;;;4871532;29;20188;-58
2022/07/14 03:30:56;;;;;;;1.57;1.47;;;23.40;49.30;;;;;;4858312;29;20905;-70
2022/07/14 03:33:25;;;;;;;1.57;1.47;;;23.40;49.30;;;;;;4874488;29;20458;-67
2022/07/14 03:35:51;;;;;;;1.50;1.40;;;23.30;49.20;;;;;;4869650;29;23792;-57
2022/07/14 03:38:17;;;;;;;2.00;1.50;;;23.40;49.30;;;;;;4880466;29;20444;-61
2022/07/14 03:40:43;;;;;;;1.53;1.43;;;23.30;49.20;;;;;;4873746;29;20431;-64
2022/07/14 03:43:09;;;;;;;1.60;1.50;;;23.40;49.30;;;;;;4870556;29;20548;-57
2022/07/14 03:45:34;;;;;;;1.57;1.47;;;23.40;49.20;;;;;;4869473;29;20194;-62
2022/07/14 03:48:00;;;;;;;1.63;1.53;;;23.40;49.30;;;;;;4869215;29;20200;-65
2022/07/14 03:50:26;;;;;;;1.63;1.53;;;23.30;49.30;;;;;;4870701;29;20696;-67
2022/07/14 03:52:52;;;;;;;1.60;1.50;;;23.40;49.30;;;;;;4875679;29;20212;-61
2022/07/14 03:55:18;;;;;;;1.70;1.60;;;23.40;49.30;;;;;;4873197;29;20240;-63
2022/07/14 03:57:43;;;;;;;1.77;1.67;;;23.30;49.20;;;;;;4868670;29;20438;-58
2022/07/14 04:00:10;;;;;;;1.60;1.50;;;23.40;49.30;;;;;;4870595;29;20222;-60
2022/07/14 04:02:35;;;;;;;1.80;1.70;;;23.40;49.30;;;;;;4871492;29;20936;-60
2022/07/14 04:05:01;;;;;;;1.50;1.40;;;23.40;49.30;;;;;;4869221;29;20439;-57
2022/07/14 04:07:26;;;;;;;1.30;1.20;;;23.40;49.30;;;;;;4868571;29;20192;-59
2022/07/14 04:09:52;;;;;;;1.60;1.50;;;23.30;49.20;;;;;;4881226;29;20201;-59
2022/07/14 04:12:17;;;;;;;1.57;1.47;;;23.40;49.30;;;;;;4868181;29;20731;-64
2022/07/14 04:14:43;;;;;;;1.40;1.30;;;23.40;49.30;;;;;;4872476;29;20615;-61
2022/07/14 04:17:08;;;;;;;1.40;1.30;;;23.40;49.30;;;;;;4870597;29;20239;-59
2022/07/14 04:19:34;;;;;;;1.60;1.50;;;23.40;49.30;;;;;;4874820;29;20216;-57
2022/07/14 04:22:00;;;;;;;1.57;1.47;;;23.40;49.30;;;;;;4875751;29;20601;-69
2022/07/14 04:24:25;;;;;;;1.67;1.57;;;23.40;49.90;;;;;;4883849;29;20565;-58
2022/07/14 04:26:51;;;;;;;1.77;1.67;;;23.40;49.40;;;;;;4869493;29;20192;-59
2022/07/14 04:29:17;;;;;;;1.57;1.47;;;23.40;49.50;;;;;;4869394;29;20207;-64
2022/07/14 04:31:43;;;;;;;1.60;1.50;;;23.40;49.30;;;;;;4869129;29;20271;-67
2022/07/14 04:34:10;;;;;;;1.70;1.60;;;23.40;49.50;;;;;;4869285;29;20196;-59
2022/07/14 04:36:36;;;;;;;1.63;1.53;;;23.40;49.50;;;;;;4871478;29;20204;-67
2022/07/14 04:39:03;;;;;;;1.63;1.53;;;23.40;49.40;;;;;;4876241;29;20563;-60
2022/07/14 04:41:29;;;;;;;1.60;1.50;;;23.40;49.40;;;;;;4876394;29;20748;-66
2022/07/14 04:43:55;;;;;;;1.80;1.70;;;23.30;49.30;;;;;;4869794;29;20430;-59
2022/07/14 04:46:20;;;;;;;1.90;1.80;;;23.40;49.30;;;;;;4868369;29;20330;-59
2022/07/14 04:54:14;;;;;;;1.60;1.50;;;23.30;49.30;;;;;;4881546;29;20529;-57
2022/07/14 04:56:40;;;;;;;1.70;1.60;;;23.40;49.30;;;;;;4868988;29;20934;-66
2022/07/14 04:59:05;;;;;;;1.90;1.80;;;23.30;49.40;;;;;;4870181;29;20248;-69
2022/07/14 05:01:31;;;;;;;1.60;1.50;;;23.30;49.50;;;;;;4876191;29;20285;-70
2022/07/14 05:03:57;;;;;;;1.50;1.40;;;23.30;49.30;;;;;;4873030;29;20220;-58
2022/07/14 05:06:23;;;;;;;1.70;1.60;;;23.40;49.50;;;;;;4872597;29;20192;-59
2022/07/14 05:08:49;;;;;;;1.60;1.50;;;23.40;49.40;;;;;;4875940;29;20207;-57
2022/07/14 05:11:14;;;;;;;1.50;1.40;;;23.30;49.40;;;;;;4877158;29;20447;-68
2022/07/14 05:13:40;;;;;;;1.60;1.50;;;23.40;49.50;;;;;;4868870;29;20191;-61
2022/07/14 05:16:06;;;;;;;1.40;1.30;;;23.40;49.50;;;;;;4869544;29;20180;-60
2022/07/14 05:18:32;;;;;;;1.40;1.30;;;23.40;49.30;;;;;;4868842;29;20275;-68
2022/07/14 05:20:58;;;;;;;1.50;1.40;;;23.40;49.50;;;;;;4867796;29;20515;-61
2022/07/14 05:23:23;;;;;;;1.50;1.40;;;23.40;49.50;;;;;;4871856;29;20230;-58
2022/07/14 05:25:49;;;;;;;1.50;1.40;;;23.40;49.50;;;;;;4880735;29;20260;-57
2022/07/14 05:28:14;;;;;;;1.70;1.60;;;23.40;49.50;;;;;;4867941;29;20193;-68
2022/07/14 05:30:40;;;;;;;1.60;1.50;;;23.40;50.20;;;;;;4867250;29;20351;-70
2022/07/14 05:33:05;;;;;;;1.33;1.23;;;23.40;49.50;;;;;;4866861;29;20595;-67
2022/07/14 05:35:31;;;;;;;1.80;1.70;;;23.40;49.50;;;;;;4867411;29;20200;-60
2022/07/14 05:37:56;;;;;;;1.70;1.60;;;23.30;49.40;;;;;;4869071;29;20335;-60
2022/07/14 05:40:22;;;;;;;1.70;1.60;;;23.40;49.50;;;;;;4876794;29;20240;-57
2022/07/14 05:42:47;;;;;;;1.53;1.43;;;23.40;49.50;;;;;;4875103;29;20629;-64
2022/07/14 05:45:13;;;;;;;1.70;1.53;;;23.30;49.40;;;;;;4867441;29;22970;-57
2022/07/14 05:47:41;;;;;;;1.60;1.50;;;23.40;49.50;;;;;;4870131;29;20268;-58
2022/07/14 05:50:08;;;;;;;1.77;1.67;;;23.40;49.50;;;;;;4869011;29;20199;-68
2022/07/14 05:52:34;;;;;;;1.60;1.50;;;23.40;49.50;;;;;;4847297;29;20435;-61
2022/07/14 05:55:00;;;;;;;1.70;1.60;;;23.40;49.50;;;;;;4874799;29;20990;-61
2022/07/14 05:57:26;;;;;;;1.70;1.60;;;23.30;49.40;;;;;;4872870;29;20240;-65
2022/07/14 05:59:52;;;;;;;1.60;1.50;;;23.40;49.50;;;;;;4867716;29;20514;-61
2022/07/14 06:02:18;;;;;;;2.07;1.87;;;23.40;49.50;;;;;;4869156;29;20709;-57
2022/07/14 06:04:44;;;;;;;1.40;1.30;;;23.40;49.50;;;;;;4869068;29;20554;-66
2022/07/14 06:07:10;;;;;;;1.43;1.33;;;23.30;49.40;;;;;;4870147;29;20449;-66
2022/07/14 06:09:37;;;;;;;1.50;1.40;;;23.40;49.50;;;;;;4868766;29;20184;-58
2022/07/14 06:12:06;;;;;;;1.47;1.37;;;23.40;49.50;;;;;;4880548;29;20446;-63
2022/07/14 06:14:33;;;;;;;1.63;1.53;;;23.30;49.40;;;;;;4874018;29;20939;-62
2022/07/14 06:16:59;;;;;;;1.60;1.50;;;23.40;49.50;;;;;;4872016;29;20479;-57
2022/07/14 06:19:24;;;;;;;1.80;1.70;;;23.30;49.40;;;;;;4872535;29;20469;-61
2022/07/14 06:21:51;;;;;;;1.63;1.50;;;23.40;49.50;;;;;;4866119;29;20314;-58
2022/07/14 06:24:18;;;;;;;1.70;1.60;;;23.40;49.50;;;;;;4875605;29;20212;-59
2022/07/14 06:26:44;;;;;;;1.70;1.60;;;23.40;49.50;;;;;;4875093;29;20458;-59
2022/07/14 06:29:10;;;;;;;1.67;1.57;;;23.40;49.50;;;;;;4867859;29;20445;-65
2022/07/14 06:31:36;;;;;;;1.90;1.80;;;23.40;49.60;;;;;;4867272;29;21087;-64
2022/07/14 06:34:03;;;;;;;2.30;1.40;;;23.30;49.40;;;;;;4871069;29;20214;-64
2022/07/14 06:36:29;;;;;;;1.60;1.50;;;23.40;49.50;;;;;;4865640;29;20454;-58
2022/07/14 06:38:55;;;;;;;1.40;1.30;;;23.40;49.50;;;;;;4869389;29;20517;-63
2022/07/14 06:41:20;;;;;;;1.57;1.40;;;23.40;49.60;;;;;;4868931;29;20199;-57
2022/07/14 06:43:47;;;;;;;1.60;1.50;;;23.40;49.50;;;;;;4878430;29;20444;-60
2022/07/14 06:46:16;;;;;;;1.80;1.70;;;23.40;49.50;;;;;;4872399;29;20211;-68
2022/07/14 06:48:43;;;;;;;1.60;1.50;;;23.30;49.40;;;;;;4866100;29;20972;-63
2022/07/14 06:51:08;;;;;;;1.50;1.40;;;23.40;49.50;;;;;;4865709;29;20438;-63
2022/07/14 06:53:35;;;;;;;1.53;1.43;;;23.40;49.50;;;;;;4871498;29;20867;-59
2022/07/14 06:56:02;;;;;;;1.70;1.50;;;23.40;49.50;;;;;;4872967;29;20857;-62
2022/07/14 06:58:27;;;;;;;1.60;1.50;;;23.40;49.50;;;;;;4879343;29;20541;-70
2022/07/14 07:00:53;;;;;;;1.53;1.43;;;23.30;49.40;;;;;;4867391;29;20455;-61
2022/07/14 07:03:18;;;;;;;1.63;1.53;;;23.40;49.50;;;;;;4868306;29;20177;-62
2022/07/14 07:08:28;;;;;;;1.50;1.40;;;23.40;49.50;;;;;;4864701;29;20236;-62
2022/07/14 07:10:58;;;;;;;1.50;1.40;;;23.40;49.50;;;;;;4865837;29;20446;-62
2022/07/14 07:13:29;;;;;;;1.60;1.50;;;23.40;49.50;;;;;;4877422;29;20180;-68
2022/07/14 07:15:55;;;;;;;1.60;1.50;;;23.40;49.50;;;;;;4872451;29;20476;-62
2022/07/14 07:18:20;;;;;;;1.60;1.50;;;23.40;49.50;;;;;;4869362;29;20557;-57
2022/07/14 07:20:46;;;;;;;1.50;1.40;;;23.30;49.40;;;;;;4873490;29;20196;-65
2022/07/14 07:23:12;;;;;;;1.83;1.73;;;23.40;49.50;;;;;;4868828;29;20196;-62
2022/07/14 07:25:38;;;;;;;1.80;1.70;;;23.40;49.50;;;;;;4874181;29;20199;-61
2022/07/14 07:28:05;;;;;;;1.40;1.30;;;23.40;49.50;;;;;;4869415;29;20481;-62
2022/07/14 07:30:31;;;;;;;1.67;1.57;;;23.40;49.50;;;;;;4874337;29;20193;-63
2022/07/14 07:32:57;;;;;;;1.60;1.50;;;23.40;49.50;;;;;;4877795;29;20544;-63
2022/07/14 07:35:23;;;;;;;1.90;1.80;;;23.40;49.50;;;;;;4864876;29;20275;-60
2022/07/14 07:37:48;;;;;;;1.70;1.60;;;23.40;49.50;;;;;;4872853;29;20195;-61
2022/07/14 07:40:15;;;;;;;1.50;1.40;;;23.40;49.50;;;;;;4873341;29;20240;-57
2022/07/14 07:42:41;;;;;;;1.67;1.57;;;23.30;49.40;;;;;;4868676;29;21365;-58
2022/07/14 07:45:08;;;;;;;1.60;1.50;;;23.40;49.50;;;;;;4881109;29;21708;-58
2022/07/14 07:47:35;;;;;;;1.70;1.60;;;23.40;49.60;;;;;;4876679;29;20234;-59
2022/07/14 07:50:01;;;;;;;1.60;1.50;;;23.40;50.30;;;;;;4877931;29;20442;-60
2022/07/14 07:52:27;;;;;;;1.63;1.53;;;23.40;49.50;;;;;;4872759;29;20440;-60
2022/07/14 07:54:53;;;;;;;1.70;1.60;;;23.40;49.40;;;;;;4876236;29;20440;-60
2022/07/14 07:57:19;;;;;;;2.70;2.50;;;23.40;49.50;;;;;;4872967;29;20542;-59
2022/07/14 07:59:45;;;;;;;1.97;1.87;;;23.40;49.50;;;;;;4877142;29;20268;-60
2022/07/14 08:02:10;;;;;;;1.90;1.80;;;23.40;49.50;;;;;;4873695;29;20644;-63
2022/07/14 08:04:36;;;;;;;1.80;1.70;;;23.40;49.50;;;;;;4870032;29;20260;-68
2022/07/14 08:07:02;;;;;;;1.97;1.77;;;23.40;49.50;;;;;;4872744;29;20191;-59
2022/07/14 08:09:27;;;;;;;1.80;1.70;;;23.40;49.50;;;;;;4870787;29;20681;-60
2022/07/14 08:11:54;;;;;;;1.70;1.60;;;23.40;49.50;;;;;;4878794;29;20188;-68
2022/07/14 08:17:04;;;;;;;1.87;1.73;;;23.40;49.40;;;;;;4877050;29;20543;-57
2022/07/14 08:19:29;;;;;;;1.80;1.70;;;23.40;49.40;;;;;;4870467;29;20886;-71
2022/07/14 08:21:55;;;;;;;1.90;1.80;;;23.40;49.50;;;;;;4873976;29;20185;-69
2022/07/14 08:24:20;;;;;;;1.90;1.80;;;23.40;49.50;;;;;;4874619;29;20188;-69
2022/07/14 08:26:46;;;;;;;2.07;1.83;;;23.40;49.50;;;;;;4868546;29;20195;-65
2022/07/14 08:29:12;;;;;;;2.33;1.40;;;23.40;49.40;;;;;;4872604;29;20196;-60
2022/07/14 08:31:38;;;;;;;2.50;1.80;;;23.40;49.40;;;;;;4879718;29;20501;-60
2022/07/14 08:34:04;;;;;;;1.70;1.60;;;23.40;49.40;;;;;;4872008;29;20330;-59
2022/07/14 08:36:31;;;;;;;4.30;2.23;;;23.40;49.50;;;;;;4871205;29;20270;-60
2022/07/14 08:38:57;;;;;;;1.87;1.77;;;23.40;49.40;;;;;;4868215;29;20494;-59
2022/07/14 08:41:23;;;;;;;1.60;1.50;;;23.40;49.30;;;;;;4869844;29;20937;-66
2022/07/14 08:43:51;;;;;;;2.33;2.13;;;23.40;49.40;;;;;;4871183;29;20192;-69
2022/07/14 08:46:17;;;;;;;2.10;1.90;;;23.40;50.10;;;;;;4882627;29;20534;-58
2022/07/14 08:48:43;;;;;;;1.87;1.77;;;23.40;49.40;;;;;;4871864;29;20443;-61
2022/07/14 08:51:11;;;;;;;1.70;1.60;;;23.40;49.30;;;;;;4875471;29;20192;-63
2022/07/14 08:53:38;;;;;;;1.63;1.53;;;23.40;49.30;;;;;;4872775;29;20470;-58
2022/07/14 08:56:04;;;;;;;2.07;1.77;;;23.40;49.30;;;;;;4868294;29;20446;-63
2022/07/14 08:58:30;;;;;;;1.70;1.60;;;23.40;49.30;;;;;;4867491;29;20625;-57
2022/07/14 09:00:56;;;;;;;1.80;1.70;;;23.40;49.30;;;;;;4875959;29;20439;-58
2022/07/14 09:03:21;;;;;;;1.70;1.60;;;23.40;49.40;;;;;;4877109;29;20439;-62
2022/07/14 09:05:47;;;;;;;1.77;1.57;;;23.40;49.40;;;;;;4868573;29;20248;-58
2022/07/14 09:08:14;;;;;;;1.80;1.70;;;23.40;49.30;;;;;;4868119;29;20185;-60
2022/07/14 09:10:45;;;;;;;1.73;1.60;;;23.40;49.30;;;;;;4858288;29;20204;-71
2022/07/14 09:13:19;;;;;;;1.80;1.70;;;23.40;49.30;;;;;;4868616;29;20526;-70
2022/07/14 09:15:46;;;;;;;1.77;1.67;;;23.40;49.30;;;;;;4870635;29;20818;-61
2022/07/14 09:18:30;;;;;;;1.63;1.53;;;23.40;49.30;;;;;;4880670;29;20867;-59
2022/07/14 09:20:56;;;;;;;1.60;1.50;;;23.40;49.30;;;;;;4867982;29;20454;-58
2022/07/14 09:23:29;;;;;;;1.80;1.70;;;23.40;49.30;;;;;;4870140;29;21218;-59
2022/07/14 09:26:11;;;;;;;2.20;1.90;;;23.40;49.30;;;;;;4867503;29;20447;-65
2022/07/14 09:28:44;;;;;;;1.80;1.70;;;23.40;49.30;;;;;;4869941;29;20512;-67
2022/07/14 09:31:21;;;;;;;1.80;1.70;;;23.40;49.30;;;;;;4868072;29;20435;-57
2022/07/14 09:33:51;;;;;;;2.07;1.53;;;23.40;49.30;;;;;;4872690;29;21600;-69
2022/07/14 09:36:28;;;;;;;1.60;1.50;;;23.40;49.30;;;;;;4867219;29;20814;-61
2022/07/14 09:39:02;;;;;;;1.70;1.60;;;23.40;49.30;;;;;;4867173;29;20469;-62
2022/07/14 09:41:29;;;;;;;1.70;1.60;;;23.40;49.30;;;;;;4870522;29;20453;-61
2022/07/14 09:44:17;;;;;;;1.73;1.63;;;23.40;49.30;;;;;;4870082;29;20443;-62
2022/07/14 09:46:56;;;;;;;1.90;1.80;;;23.40;49.20;;;;;;4869864;29;20518;-57
2022/07/14 09:49:24;;;;;;;2.13;1.93;;;23.40;49.30;;;;;;4876755;29;20453;-60
2022/07/14 09:52:01;;;;;;;1.47;1.37;;;23.40;49.30;;;;;;4869503;29;20435;-69
2022/07/14 09:54:47;;;;;;;1.73;1.63;;;23.40;49.30;;;;;;4866783;29;20452;-63
2022/07/14 09:57:12;;;;;;;1.63;1.53;;;23.40;49.30;;;;;;4870958;29;20435;-61
2022/07/14 09:59:56;;;;;;;1.70;1.50;;;23.40;49.30;;;;;;4865460;29;21004;-69
2022/07/14 10:02:31;;;;;;;1.87;1.43;;;23.40;49.20;;;;;;4869395;29;20203;-69
2022/07/14 10:05:01;;;;;;;1.30;1.20;;;23.40;49.30;;;;;;4877566;29;20431;-61
2022/07/14 10:07:33;;;;;;;1.90;1.40;;;23.40;49.20;;;;;;4865596;29;20521;-60
2022/07/14 10:10:09;;;;;;;1.57;1.30;;;23.40;49.30;;;;;;4865073;29;20462;-59
2022/07/14 10:12:41;;;;;;;1.40;1.30;;;23.40;49.20;;;;;;4867483;29;20458;-60
2022/07/14 10:15:08;;;;;;;1.50;1.40;;;23.40;49.20;;;;;;4868752;29;20446;-71
2022/07/14 10:17:36;;;;;;;1.40;1.30;;;23.40;49.20;;;;;;4870213;29;20506;-60
2022/07/14 10:20:06;;;;;;;2.10;1.90;;;23.40;49.20;;;;;;4878154;29;20555;-60
2022/07/14 10:22:32;;;;;;;1.40;1.30;;;23.40;49.10;;;;;;4867717;29;20435;-66
2022/07/14 10:24:58;;;;;;;1.80;1.70;;;23.40;49.20;;;;;;4872034;29;20770;-68
2022/07/14 10:27:26;;;;;;;1.67;1.57;;;23.40;49.10;;;;;;4865045;29;20427;-64
2022/07/14 10:29:53;;;;;;;1.70;1.60;;;23.40;49.10;;;;;;4867473;29;20188;-59
2022/07/14 10:32:28;;;;;;;1.63;1.53;;;23.40;49.10;;;;;;4868625;29;20447;-57
2022/07/14 10:35:18;;;;;;;1.70;1.37;;;23.40;49.10;;;;;;4875955;29;20427;-60
2022/07/14 10:38:11;;;;;;;1.50;1.40;;;23.40;49.10;;;;;;4869612;29;20439;-59
2022/07/14 10:41:01;;;;;;;1.50;1.40;;;23.40;49.20;;;;;;4866286;29;20480;-62
2022/07/14 10:43:57;;;;;;;1.60;1.50;;;23.40;49.10;;;;;;4866665;29;20542;-69
2022/07/14 10:47:08;;;;;;;1.70;1.60;;;23.40;49.10;;;;;;4865600;29;20573;-69
2022/07/14 10:50:05;;;;;;;1.37;1.27;;;23.40;49.10;;;;;;4867131;29;20443;-59
2022/07/14 10:52:35;;;;;;;1.90;1.70;;;23.40;49.10;;;;;;4865967;29;20434;-59
2022/07/14 10:55:23;;;;;;;1.40;1.30;;;23.40;49.10;;;;;;4868277;29;20434;-57
2022/07/14 10:58:01;;;;;;;1.47;1.37;;;23.40;49.10;;;;;;4865760;29;20465;-57
2022/07/14 11:00:43;;;;;;;1.50;1.40;;;23.40;49.20;;;;;;4866580;29;20473;-61
2022/07/14 11:03:21;;;;;;;1.50;1.40;;;23.40;49.10;;;;;;4866244;29;20451;-58
2022/07/14 11:06:11;;;;;;;1.43;1.33;;;23.40;49.10;;;;;;4870794;29;20823;-70
2022/07/14 11:09:05;;;;;;;1.30;1.20;;;23.40;49.10;;;;;;4866420;29;20431;-61
2022/07/14 11:11:32;;;;;;;1.60;1.50;;;23.40;49.10;;;;;;4869656;29;20939;-69
2022/07/14 11:14:00;;;;;;;1.40;1.30;;;23.40;49.10;;;;;;4870454;29;20447;-68
2022/07/14 11:16:50;;;;;;;1.87;1.57;;;23.40;49.00;;;;;;4865146;29;20446;-60
2022/07/14 11:19:29;;;;;;;1.50;1.37;;;23.40;49.00;;;;;;4873342;29;20961;-62
2022/07/14 11:22:29;;;;;;;1.20;1.10;;;23.40;49.00;;;;;;4870677;29;20435;-57
2022/07/14 11:24:59;;;;;;;1.40;1.30;;;23.40;49.00;;;;;;4777463;29;20509;-71
2022/07/14 11:27:29;;;;;;;1.00;1.00;;;23.40;49.00;;;;;;4857191;29;20483;-63
2022/07/14 11:30:15;;;;;;;1.70;1.60;;;23.40;49.00;;;;;;4869918;29;20453;-58
2022/07/14 11:32:42;;;;;;;1.50;1.40;;;23.40;48.90;;;;;;4870946;29;21441;-62
2022/07/14 11:37:58;;;;;;;1.50;1.40;;;23.40;48.90;;;;;;4874870;29;20470;-70
2022/07/14 11:40:46;;;;;;;1.57;1.47;;;23.40;48.90;;;;;;4871093;29;20467;-63
2022/07/14 11:43:30;;;;;;;1.37;1.27;;;23.40;48.90;;;;;;4870470;29;20470;-71
2022/07/14 11:46:01;;;;;;;1.47;1.37;;;23.40;48.90;;;;;;4867983;29;20456;-69
2022/07/14 11:48:32;;;;;;;1.40;1.30;;;23.40;48.90;;;;;;4869208;29;20502;-61
2022/07/14 11:51:25;;;;;;;1.40;1.30;;;23.40;48.80;;;;;;4876618;29;20439;-58
2022/07/14 11:53:55;;;;;;;1.50;1.40;;;23.40;48.80;;;;;;4868130;29;20443;-59
2022/07/14 11:56:23;;;;;;;1.33;1.23;;;23.40;48.80;;;;;;4872889;29;20431;-60
2022/07/14 11:58:50;;;;;;;1.30;1.20;;;23.40;48.80;;;;;;4870514;29;21151;-60
2022/07/14 12:01:16;;;;;;;1.57;1.47;;;23.40;48.70;;;;;;4871806;29;20448;-57
2022/07/14 12:03:42;;;;;;;1.40;1.30;;;23.40;48.70;;;;;;4856188;29;20727;-65
2022/07/14 12:06:07;;;;;;;1.40;1.30;;;23.40;48.70;;;;;;4875633;29;20213;-58
2022/07/14 12:08:37;;;;;;;1.60;1.50;;;23.40;48.70;;;;;;4872621;29;20646;-69
2022/07/14 12:11:03;;;;;;;1.90;1.30;;;23.40;48.70;;;;;;4871590;29;20181;-69
2022/07/14 12:13:29;;;;;;;1.30;1.20;;;23.40;48.70;;;;;;4874743;29;20517;-64
2022/07/14 12:16:03;;;;;;;1.30;1.20;;;23.40;48.70;;;;;;4870249;29;20191;-58
2022/07/14 12:18:31;;;;;;;1.27;1.17;;;23.40;49.40;;;;;;4870351;29;20520;-58
2022/07/14 12:20:59;;;;;;;1.50;1.37;;;23.40;48.60;;;;;;4873324;29;20856;-59
2022/07/14 12:23:24;;;;;;;1.67;1.57;;;23.40;48.60;;;;;;4877906;29;20470;-70
2022/07/14 12:25:50;;;;;;;1.50;1.40;;;23.40;48.60;;;;;;4870140;29;20601;-66
2022/07/14 12:28:18;;;;;;;1.60;1.50;;;23.40;48.60;;;;;;4872736;29;20298;-57
2022/07/14 12:30:58;;;;;;;1.40;1.30;;;23.40;48.60;;;;;;4868600;29;20208;-64
2022/07/14 12:33:37;;;;;;;1.37;1.27;;;23.40;49.30;;;;;;4868791;29;20531;-71
2022/07/14 12:36:04;;;;;;;1.40;1.30;;;23.40;48.50;;;;;;4871653;29;21669;-57
2022/07/14 12:38:33;;;;;;;1.40;1.30;;;23.40;48.60;;;;;;4878994;29;20454;-60
2022/07/14 12:41:01;;;;;;;1.50;1.40;;;23.40;48.60;;;;;;4871939;29;20994;-58
2022/07/14 12:43:30;;;;;;;1.37;1.27;;;23.40;48.60;;;;;;4868393;29;20444;-63
2022/07/14 12:46:09;;;;;;;1.40;1.30;;;23.40;48.60;;;;;;4870194;29;20459;-58
2022/07/14 12:48:49;;;;;;;1.67;1.57;;;23.40;48.50;;;;;;4869734;29;20438;-70
2022/07/14 12:51:20;;;;;;;1.57;1.30;;;23.40;49.20;;;;;;4870869;29;20445;-58
2022/07/14 12:54:12;;;;;;;1.20;1.10;;;23.40;48.50;;;;;;4881250;29;20439;-67
2022/07/14 12:56:47;;;;;;;1.23;1.13;;;23.40;48.60;;;;;;4868490;29;20440;-66
2022/07/14 12:59:20;;;;;;;1.40;1.30;;;23.40;48.50;;;;;;4869902;29;20471;-62
2022/07/14 13:01:57;;;;;;;1.60;1.50;;;23.40;48.40;;;;;;4871502;29;20431;-60
2022/07/14 13:04:44;;;;;;;1.40;1.30;;;23.40;48.40;;;;;;4870325;29;20441;-60
2022/07/14 13:07:19;;;;;;;1.50;1.40;;;23.40;48.30;;;;;;4875435;29;20567;-60
2022/07/14 13:10:04;;;;;;;1.20;1.10;;;23.40;48.30;;;;;;4876156;29;20454;-71
2022/07/14 13:12:29;;;;;;;1.40;1.30;;;23.40;48.30;;;;;;4868469;29;20522;-63